Time;durP1;ratioP1;P1;durP2;ratioP2;P2;SDS_P1;SDS_P2;PMS_P1;PMS_P2;Temp;Humidity;BMP_temperature;BMP_pressure;BME280_temperature;BME280_humidity;BME280_pressure;Samples;Min_cycle;Max_cycle;Signal;HPM_P1;HPM_P2
2021/01/10 00:00:32;;;;;;;;;;;3.00;97.60;;;;;;4362374;32;44217;-46
2021/01/10 00:02:59;;;;;;;;;;;3.00;97.60;;;;;;4361954;32;42712;-46
2021/01/10 00:05:25;;;;;;;;;;;3.00;97.60;;;;;;4362549;32;29723;-46
2021/01/10 00:07:55;;;;;;;;;;;3.00;97.60;;;;;;4362235;32;43163;-46
2021/01/10 00:10:22;;;;;;;;;;;3.00;97.70;;;;;;4362249;32;44234;-46
2021/01/10 00:12:49;;;;;;;;;;;3.00;97.70;;;;;;4361267;32;44202;-47
2021/01/10 00:15:17;;;;;;;;;;;3.00;97.70;;;;;;4362319;32;42192;-46
2021/01/10 00:17:48;;;;;;;;;;;3.00;97.70;;;;;;4362524;32;43165;-46
2021/01/10 00:20:17;;;;;;;;;;;3.00;97.70;;;;;;4373363;32;43522;-46
2021/01/10 00:22:45;;;;;;;;;;;3.00;97.70;;;;;;4373121;32;43345;-46
2021/01/10 00:25:13;;;;;;;;;;;3.00;97.70;;;;;;4361072;32;42565;-46
2021/01/10 00:27:40;;;;;;;;;;;3.00;97.70;;;;;;4361408;32;32602;-46
2021/01/10 00:30:09;;;;;;;;;;;3.00;97.70;;;;;;4348732;32;31599;-46
2021/01/10 00:32:45;;;;;;;;;;;3.00;97.70;;;;;;4373134;32;30473;-46
2021/01/10 00:35:13;;;;;;;;;;;3.00;97.70;;;;;;4362650;32;30083;-46
2021/01/10 00:37:43;;;;;;;;;;;3.00;97.70;;;;;;4361682;32;43266;-47
2021/01/10 00:40:10;;;;;;;;;;;3.00;97.70;;;;;;4361034;32;43865;-46
2021/01/10 00:42:41;;;;;;;;;;;3.00;97.70;;;;;;4362345;32;31120;-46
2021/01/10 00:45:09;;;;;;;;;;;3.00;97.70;;;;;;4362887;32;20007;-46
2021/01/10 00:47:36;;;;;;;;;;;3.00;97.70;;;;;;4361958;32;43231;-46
2021/01/10 00:50:04;;;;;;;;;;;3.00;97.70;;;;;;4361698;32;42953;-46
2021/01/10 00:52:31;;;;;;;;;;;3.00;97.70;;;;;;4361370;32;44628;-46
2021/01/10 00:54:58;;;;;;;;;;;3.00;97.70;;;;;;4361753;32;44190;-46
2021/01/10 00:57:25;;;;;;;;;;;3.00;97.70;;;;;;4361987;32;43186;-46
2021/01/10 00:59:52;;;;;;;;;;;3.00;97.70;;;;;;4361690;32;43190;-46
2021/01/10 01:02:18;;;;;;;;;;;3.00;97.70;;;;;;4361152;32;42925;-46
2021/01/10 01:04:46;;;;;;;;;;;3.00;97.70;;;;;;4360732;32;30871;-48
2021/01/10 01:07:13;;;;;;;;;;;3.00;97.60;;;;;;4360783;32;32085;-46
2021/01/10 01:09:40;;;;;;;;;;;3.00;97.70;;;;;;4360767;32;42982;-47
2021/01/10 01:12:22;;;;;;;;;;;3.00;97.70;;;;;;4362587;32;20053;-47
2021/01/10 01:14:49;;;;;;;;;;;3.00;97.70;;;;;;4361269;32;44390;-46
2021/01/10 01:17:16;;;;;;;;;;;3.00;97.70;;;;;;4362533;32;20013;-46
2021/01/10 01:19:42;;;;;;;;;;;3.00;97.70;;;;;;4361389;32;43112;-47
2021/01/10 01:22:09;;;;;;;;;;;3.00;97.60;;;;;;4361435;32;43836;-47
2021/01/10 01:24:36;;;;;;;;;;;3.00;97.60;;;;;;4360995;32;44559;-48
2021/01/10 01:27:02;;;;;;;;;;;3.00;97.70;;;;;;4361196;32;43794;-48
2021/01/10 01:29:29;;;;;;;;;;;3.00;97.70;;;;;;4361125;32;43103;-46
2021/01/10 01:31:56;;;;;;;;;;;3.00;97.70;;;;;;4361100;32;42815;-47
2021/01/10 01:34:25;;;;;;;;;;;3.00;97.70;;;;;;4361150;32;44189;-50
2021/01/10 01:36:52;;;;;;;;;;;3.00;97.60;;;;;;4361148;32;44014;-48
2021/01/10 01:39:19;;;;;;;;;;;3.00;97.60;;;;;;4360772;32;43292;-46
2021/01/10 01:41:49;;;;;;;;;;;3.00;97.70;;;;;;4360916;32;43934;-50
2021/01/10 01:44:16;;;;;;;;;;;3.00;97.60;;;;;;4360057;32;31701;-48
2021/01/10 01:46:43;;;;;;;;;;;3.00;97.60;;;;;;4360948;32;44209;-50
2021/01/10 01:49:11;;;;;;;;;;;3.00;97.70;;;;;;4361445;32;30049;-48
2021/01/10 01:51:39;;;;;;;;;;;3.00;97.70;;;;;;4362214;32;20001;-48
2021/01/10 01:54:06;;;;;;;;;;;3.00;97.70;;;;;;4360656;32;41932;-49
2021/01/10 01:56:33;;;;;;;;;;;3.00;97.70;;;;;;4361521;32;29865;-47
2021/01/10 01:59:04;;;;;;;;;;;3.00;97.60;;;;;;4360915;32;34700;-47
2021/01/10 02:01:33;;;;;;;;;;;3.00;97.60;;;;;;4360725;32;42814;-52
2021/01/10 02:04:04;;;;;;;;;;;3.00;97.60;;;;;;4360862;32;44854;-51
2021/01/10 02:06:33;;;;;;;;;;;3.00;97.60;;;;;;4360437;32;42195;-50
2021/01/10 02:09:04;;;;;;;;;;;2.90;97.60;;;;;;4360103;32;31595;-46
2021/01/10 02:11:32;;;;;;;;;;;3.00;97.70;;;;;;4359962;32;43810;-46
2021/01/10 02:14:03;;;;;;;;;;;2.90;97.60;;;;;;4360636;32;43280;-46
2021/01/10 02:16:30;;;;;;;;;;;3.00;97.70;;;;;;4347517;32;31576;-46
2021/01/10 02:18:57;;;;;;;;;;;3.00;97.70;;;;;;4359347;32;32259;-46
2021/01/10 02:21:24;;;;;;;;;;;3.00;97.70;;;;;;4360321;32;42019;-46
2021/01/10 02:23:52;;;;;;;;;;;3.00;97.70;;;;;;4360576;32;43227;-47
2021/01/10 02:26:19;;;;;;;;;;;3.00;97.60;;;;;;4360582;32;44244;-46
2021/01/10 02:28:46;;;;;;;;;;;3.00;97.70;;;;;;4360523;32;43440;-47
2021/01/10 02:31:17;;;;;;;;;;;3.00;97.70;;;;;;4360865;32;30869;-46
2021/01/10 02:33:49;;;;;;;;;;;3.00;97.70;;;;;;4371465;32;41965;-46
2021/01/10 02:36:21;;;;;;;;;;;3.00;97.70;;;;;;4361067;32;29887;-46
2021/01/10 02:38:50;;;;;;;;;;;3.00;97.60;;;;;;4360213;32;44171;-46
2021/01/10 02:41:39;;;;;;;;;;;2.90;97.60;;;;;;4360345;32;44377;-46
2021/01/10 02:44:07;;;;;;;;;;;3.00;97.70;;;;;;4371726;32;42957;-46
2021/01/10 02:46:35;;;;;;;;;;;3.00;97.60;;;;;;4360065;32;42245;-46
2021/01/10 02:49:02;;;;;;;;;;;2.90;97.60;;;;;;4371797;32;30433;-46
2021/01/10 02:51:29;;;;;;;;;;;2.90;97.60;;;;;;4360401;32;44119;-47
2021/01/10 02:53:56;;;;;;;;;;;3.00;97.60;;;;;;4359895;32;43043;-47
2021/01/10 02:56:22;;;;;;;;;;;3.00;97.60;;;;;;4360185;32;43628;-46
2021/01/10 02:58:51;;;;;;;;;;;2.90;97.60;;;;;;4360260;32;43272;-47
2021/01/10 03:01:18;;;;;;;;;;;2.90;97.60;;;;;;4360273;33;43229;-46
2021/01/10 03:03:44;;;;;;;;;;;3.00;97.60;;;;;;4359951;33;44213;-46
2021/01/10 03:06:11;;;;;;;;;;;3.00;97.60;;;;;;4360234;32;43472;-46
2021/01/10 03:08:38;;;;;;;;;;;3.00;97.60;;;;;;4359802;33;42908;-46
2021/01/10 03:11:05;;;;;;;;;;;2.90;97.60;;;;;;4360138;33;43350;-47
2021/01/10 03:13:32;;;;;;;;;;;2.90;97.60;;;;;;4359779;33;44201;-46
2021/01/10 03:16:00;;;;;;;;;;;2.90;97.60;;;;;;4346858;33;32200;-46
2021/01/10 03:18:27;;;;;;;;;;;2.90;97.60;;;;;;4360638;32;29536;-46
2021/01/10 03:20:53;;;;;;;;;;;2.90;97.60;;;;;;4359972;33;41139;-46
2021/01/10 03:23:21;;;;;;;;;;;2.90;97.60;;;;;;4360022;33;43194;-47
2021/01/10 03:25:47;;;;;;;;;;;2.90;97.60;;;;;;4359721;32;42029;-47
2021/01/10 03:28:14;;;;;;;;;;;2.90;97.60;;;;;;4359793;33;41439;-46
2021/01/10 03:30:41;;;;;;;;;;;2.90;97.60;;;;;;4360059;33;44113;-49
2021/01/10 03:33:08;;;;;;;;;;;2.90;97.60;;;;;;4360184;32;30937;-46
2021/01/10 03:35:35;;;;;;;;;;;2.90;97.60;;;;;;4360416;32;30012;-47
2021/01/10 03:38:03;;;;;;;;;;;2.90;97.60;;;;;;4359126;33;30911;-47
2021/01/10 03:40:30;;;;;;;;;;;3.00;97.60;;;;;;4346454;33;30774;-47
2021/01/10 03:42:57;;;;;;;;;;;2.90;97.60;;;;;;4360291;32;44184;-48
2021/01/10 03:45:25;;;;;;;;;;;2.90;97.50;;;;;;4360120;33;30561;-46
2021/01/10 03:47:52;;;;;;;;;;;2.90;97.50;;;;;;4359883;33;43215;-47
2021/01/10 03:50:19;;;;;;;;;;;2.90;97.50;;;;;;4359893;32;44078;-47
2021/01/10 03:52:46;;;;;;;;;;;2.90;97.50;;;;;;4359107;33;32732;-48
2021/01/10 03:55:13;;;;;;;;;;;2.90;97.50;;;;;;4359723;32;44044;-49
2021/01/10 03:57:40;;;;;;;;;;;2.90;97.50;;;;;;4359583;32;43523;-55
2021/01/10 04:00:08;;;;;;;;;;;2.90;97.50;;;;;;4359497;33;43857;-51
2021/01/10 04:02:35;;;;;;;;;;;2.90;97.50;;;;;;4359492;33;42486;-47
2021/01/10 04:05:04;;;;;;;;;;;2.90;97.50;;;;;;4359310;32;32409;-48
2021/01/10 04:07:34;;;;;;;;;;;2.90;97.50;;;;;;4362489;32;43406;-46
2021/01/10 04:10:03;;;;;;;;;;;2.90;97.50;;;;;;4362139;32;43984;-46
2021/01/10 04:12:30;;;;;;;;;;;2.90;97.50;;;;;;4362293;32;43834;-46
2021/01/10 04:14:57;;;;;;;;;;;2.90;97.50;;;;;;4362217;32;43367;-46
2021/01/10 04:17:27;;;;;;;;;;;2.90;97.50;;;;;;4362378;32;44035;-46
2021/01/10 04:19:54;;;;;;;;;;;2.90;97.50;;;;;;4361402;32;30814;-47
2021/01/10 04:22:21;;;;;;;;;;;2.90;97.50;;;;;;4361922;32;44559;-47
2021/01/10 04:24:50;;;;;;;;;;;2.90;97.50;;;;;;4362180;32;42844;-46
2021/01/10 04:27:17;;;;;;;;;;;2.90;97.50;;;;;;4361005;32;41950;-46
2021/01/10 04:29:43;;;;;;;;;;;2.90;97.60;;;;;;4362207;32;43125;-46
2021/01/10 04:32:10;;;;;;;;;;;2.90;97.50;;;;;;4362531;32;30815;-46
2021/01/10 04:34:38;;;;;;;;;;;2.90;97.50;;;;;;4362423;32;33209;-46
2021/01/10 04:37:04;;;;;;;;;;;2.90;97.50;;;;;;4362279;32;42847;-46
2021/01/10 04:39:31;;;;;;;;;;;2.90;97.50;;;;;;4361727;32;44142;-46
2021/01/10 04:41:58;;;;;;;;;;;2.90;97.50;;;;;;4362456;32;31111;-46
2021/01/10 04:44:25;;;;;;;;;;;2.90;97.50;;;;;;4361847;32;43513;-46
2021/01/10 04:46:52;;;;;;;;;;;2.90;97.50;;;;;;4362275;32;31620;-46
2021/01/10 04:49:19;;;;;;;;;;;2.90;97.50;;;;;;4361940;32;43251;-46
2021/01/10 04:51:48;;;;;;;;;;;2.90;97.60;;;;;;4361557;32;41858;-46
2021/01/10 04:54:16;;;;;;;;;;;2.90;97.60;;;;;;4360787;32;33253;-46
2021/01/10 04:56:44;;;;;;;;;;;2.90;97.60;;;;;;4362313;32;30788;-47
2021/01/10 04:59:11;;;;;;;;;;;2.90;97.50;;;;;;4362234;32;31061;-46
2021/01/10 05:01:47;;;;;;;;;;;2.90;97.50;;;;;;4361349;32;42505;-47
2021/01/10 05:04:16;;;;;;;;;;;2.90;97.50;;;;;;4372984;32;44299;-47
2021/01/10 05:06:43;;;;;;;;;;;2.80;97.50;;;;;;4361394;32;44242;-49
2021/01/10 05:09:10;;;;;;;;;;;2.90;97.60;;;;;;4361424;32;42888;-47
2021/01/10 05:11:38;;;;;;;;;;;2.90;97.50;;;;;;4361477;32;43068;-48
2021/01/10 05:14:05;;;;;;;;;;;2.90;97.50;;;;;;4361631;32;38352;-47
2021/01/10 05:16:38;;;;;;;;;;;2.90;97.50;;;;;;4361915;32;31133;-47
2021/01/10 05:19:05;;;;;;;;;;;2.90;97.50;;;;;;4362641;32;20016;-47
2021/01/10 05:21:32;;;;;;;;;;;2.80;97.50;;;;;;4361310;32;43829;-46
2021/01/10 05:24:01;;;;;;;;;;;2.90;97.60;;;;;;4361673;32;31881;-50
2021/01/10 05:26:33;;;;;;;;;;;2.80;97.60;;;;;;4361677;32;31743;-46
2021/01/10 05:29:07;;;;;;;;;;;2.80;97.70;;;;;;4361411;32;43578;-48
2021/01/10 05:31:34;;;;;;;;;;;2.90;97.60;;;;;;4361138;32;42843;-49
2021/01/10 05:34:02;;;;;;;;;;;2.80;97.60;;;;;;4372621;32;30669;-48
2021/01/10 05:36:34;;;;;;;;;;;2.90;97.60;;;;;;4361086;32;44186;-47
2021/01/10 05:39:19;;;;;;;;;;;2.90;97.60;;;;;;4372488;32;44350;-46
2021/01/10 05:41:50;;;;;;;;;;;2.90;97.70;;;;;;4372326;32;29949;-50
2021/01/10 05:44:18;;;;;;;;;;;2.80;97.60;;;;;;4360813;32;42517;-47
2021/01/10 05:46:45;;;;;;;;;;;2.90;97.60;;;;;;4360879;32;44349;-46
2021/01/10 05:49:17;;;;;;;;;;;2.90;97.60;;;;;;4361683;32;30164;-48
2021/01/10 05:51:44;;;;;;;;;;;2.90;97.60;;;;;;4360189;32;31685;-48
2021/01/10 05:54:31;;;;;;;;;;;2.90;97.60;;;;;;4360996;32;42198;-48
2021/01/10 05:56:58;;;;;;;;;;;2.90;97.60;;;;;;4360903;32;43854;-47
2021/01/10 05:59:25;;;;;;;;;;;2.90;97.60;;;;;;4360725;32;43190;-46
2021/01/10 06:01:56;;;;;;;;;;;2.90;97.60;;;;;;4360782;32;32338;-47
2021/01/10 06:04:23;;;;;;;;;;;2.90;97.60;;;;;;4360059;32;31692;-48
2021/01/10 06:06:51;;;;;;;;;;;2.90;97.60;;;;;;4359658;32;30722;-48
2021/01/10 06:09:18;;;;;;;;;;;2.90;97.90;;;;;;4359670;32;30497;-47
2021/01/10 06:11:45;;;;;;;;;;;2.90;97.60;;;;;;4361036;32;30587;-52
2021/01/10 06:14:18;;;;;;;;;;;2.90;97.60;;;;;;4360576;32;44135;-50
2021/01/10 06:16:50;;;;;;;;;;;2.80;97.50;;;;;;4347658;32;30628;-49
2021/01/10 06:19:18;;;;;;;;;;;2.90;97.50;;;;;;4360350;32;44313;-47
2021/01/10 06:21:48;;;;;;;;;;;2.80;97.50;;;;;;4360250;32;43163;-46
2021/01/10 06:24:17;;;;;;;;;;;2.90;97.60;;;;;;4359878;32;30135;-46
2021/01/10 06:26:46;;;;;;;;;;;2.80;97.50;;;;;;4347375;32;32569;-46
2021/01/10 06:29:16;;;;;;;;;;;2.90;97.60;;;;;;4360171;32;42201;-47
2021/01/10 06:31:45;;;;;;;;;;;2.90;97.60;;;;;;4347498;32;30613;-46
2021/01/10 06:34:12;;;;;;;;;;;2.90;97.60;;;;;;4359344;32;32279;-46
2021/01/10 06:36:41;;;;;;;;;;;2.90;97.60;;;;;;4359444;32;31916;-46
2021/01/10 06:39:09;;;;;;;;;;;2.90;97.60;;;;;;4347210;32;31772;-47
2021/01/10 06:41:55;;;;;;;;;;;2.90;97.60;;;;;;4360207;32;42929;-46
2021/01/10 06:44:27;;;;;;;;;;;2.90;97.60;;;;;;4360374;32;31806;-46
2021/01/10 06:46:55;;;;;;;;;;;2.90;97.60;;;;;;4359287;32;31828;-46
2021/01/10 06:49:22;;;;;;;;;;;2.90;97.60;;;;;;4359270;32;31561;-46
2021/01/10 06:51:55;;;;;;;;;;;2.90;97.60;;;;;;4360502;32;43812;-46
2021/01/10 06:54:23;;;;;;;;;;;2.90;97.60;;;;;;4359280;32;44094;-46
2021/01/10 06:56:51;;;;;;;;;;;2.90;97.60;;;;;;4360222;32;43468;-46
2021/01/10 06:59:19;;;;;;;;;;;2.80;97.60;;;;;;4360652;32;44138;-46
2021/01/10 07:01:49;;;;;;;;;;;2.90;97.60;;;;;;4359741;33;43236;-46
2021/01/10 07:04:17;;;;;;;;;;;2.90;97.70;;;;;;4360071;32;44203;-46
2021/01/10 07:06:45;;;;;;;;;;;2.90;97.60;;;;;;4359172;33;44336;-46
2021/01/10 07:09:12;;;;;;;;;;;2.90;97.60;;;;;;4360175;33;43975;-46
2021/01/10 07:11:39;;;;;;;;;;;2.90;97.60;;;;;;4360553;32;43991;-46
2021/01/10 07:14:06;;;;;;;;;;;2.90;97.60;;;;;;4359826;32;43536;-46
2021/01/10 07:16:33;;;;;;;;;;;2.80;97.60;;;;;;4359083;33;33325;-47
2021/01/10 07:19:03;;;;;;;;;;;2.80;97.60;;;;;;4359954;33;42099;-47
2021/01/10 07:21:37;;;;;;;;;;;2.90;97.70;;;;;;4360448;33;30804;-46
2021/01/10 07:24:13;;;;;;;;;;;2.90;97.70;;;;;;4371296;32;43445;-46
2021/01/10 07:26:44;;;;;;;;;;;2.80;97.60;;;;;;4359890;32;34692;-46
2021/01/10 07:29:30;;;;;;;;;;;2.90;97.70;;;;;;4359017;33;33915;-46
2021/01/10 07:31:58;;;;;;;;;;;2.90;97.60;;;;;;4360283;33;32579;-46
2021/01/10 07:34:26;;;;;;;;;;;2.80;97.60;;;;;;4359950;32;44070;-47
2021/01/10 07:36:54;;;;;;;;;;;2.90;97.60;;;;;;4360175;33;43930;-46
2021/01/10 07:39:22;;;;;;;;;;;2.80;97.50;;;;;;4359186;32;25739;-46
2021/01/10 07:41:50;;;;;;;;;;;2.80;97.50;;;;;;4362439;32;42979;-47
2021/01/10 07:44:21;;;;;;;;;;;2.90;97.60;;;;;;4362855;32;43793;-47
2021/01/10 07:46:54;;;;;;;;;;;2.80;97.50;;;;;;4361923;32;39383;-46
2021/01/10 07:49:22;;;;;;;;;;;2.80;97.50;;;;;;4362781;32;43165;-46
2021/01/10 07:51:49;;;;;;;;;;;2.80;97.60;;;;;;4362854;32;43822;-46
2021/01/10 07:54:17;;;;;;;;;;;2.80;97.60;;;;;;4362803;32;44688;-46
2021/01/10 07:56:44;;;;;;;;;;;2.80;97.80;;;;;;4349459;32;33098;-47
2021/01/10 07:59:15;;;;;;;;;;;2.80;97.60;;;;;;4362541;32;43330;-47
2021/01/10 08:01:48;;;;;;;;;;;2.80;97.60;;;;;;4361921;32;44653;-49
2021/01/10 08:04:35;;;;;;;;;;;2.80;97.50;;;;;;4362292;32;43962;-48
2021/01/10 08:07:05;;;;;;;;;;;2.80;97.50;;;;;;4373885;32;43623;-47
2021/01/10 08:09:32;;;;;;;;;;;2.80;97.50;;;;;;4362495;32;43283;-46
2021/01/10 08:12:00;;;;;;;;;;;2.80;97.50;;;;;;4362403;32;42818;-47
2021/01/10 08:14:27;;;;;;;;;;;2.80;97.50;;;;;;4362259;32;42299;-46
2021/01/10 08:16:54;;;;;;;;;;;2.80;97.50;;;;;;4362557;32;43199;-49
2021/01/10 08:19:21;;;;;;;;;;;2.80;97.50;;;;;;4362111;32;43481;-48
2021/01/10 08:21:48;;;;;;;;;;;2.80;97.50;;;;;;4362119;32;43183;-49
2021/01/10 08:24:17;;;;;;;;;;;2.80;97.50;;;;;;4362626;32;30874;-55
2021/01/10 08:26:44;;;;;;;;;;;2.80;97.50;;;;;;4373859;32;31745;-49
2021/01/10 08:29:11;;;;;;;;;;;2.80;97.50;;;;;;4362229;32;43228;-53
2021/01/10 08:31:40;;;;;;;;;;;2.80;97.70;;;;;;4362333;32;30721;-50
2021/01/10 08:34:16;;;;;;;;;;;2.80;97.70;;;;;;4361281;32;31525;-48
2021/01/10 08:36:45;;;;;;;;;;;2.80;97.70;;;;;;4371039;32;31362;-51
2021/01/10 08:39:15;;;;;;;;;;;2.80;97.60;;;;;;4358146;32;44252;-47
2021/01/10 08:41:45;;;;;;;;;;;2.80;97.60;;;;;;4358889;32;30262;-47
2021/01/10 08:44:13;;;;;;;;;;;2.80;97.70;;;;;;4347010;33;20016;-48
2021/01/10 08:46:41;;;;;;;;;;;2.80;97.90;;;;;;4347550;32;31229;-48
2021/01/10 08:49:09;;;;;;;;;;;2.80;97.90;;;;;;4346948;33;44266;-48
2021/01/10 08:51:36;;;;;;;;;;;2.80;97.90;;;;;;4346184;33;43457;-48
2021/01/10 08:54:08;;;;;;;;;;;2.80;97.90;;;;;;4346601;33;44308;-49
2021/01/10 08:56:36;;;;;;;;;;;2.80;98.20;;;;;;4358214;32;30938;-46
2021/01/10 08:59:03;;;;;;;;;;;2.80;98.20;;;;;;4346358;33;42275;-47
2021/01/10 09:01:31;;;;;;;;;;;2.80;97.80;;;;;;4346088;32;42375;-47
2021/01/10 09:03:59;;;;;;;;;;;2.80;97.80;;;;;;4358787;32;20132;-47
2021/01/10 09:06:45;;;;;;;;;;;2.80;97.80;;;;;;4345438;33;30462;-46
2021/01/10 09:09:24;;;;;;;;;;;2.90;97.80;;;;;;4347622;33;20054;-47
2021/01/10 09:11:59;;;;;;;;;;;2.80;97.90;;;;;;4346693;32;43960;-46
2021/01/10 09:14:29;;;;;;;;;;;2.90;97.90;;;;;;4357711;32;20438;-52
2021/01/10 09:16:57;;;;;;;;;;;2.90;97.90;;;;;;4344790;33;31991;-52
2021/01/10 09:19:26;;;;;;;;;;;2.90;97.80;;;;;;4345916;33;30209;-52
2021/01/10 09:21:54;;;;;;;;;;;2.80;97.80;;;;;;4332940;33;32302;-46
2021/01/10 09:24:26;;;;;;;;;;;2.90;97.80;;;;;;4346233;33;43160;-47
2021/01/10 09:26:54;;;;;;;;;;;2.80;97.80;;;;;;4346185;33;44282;-46
2021/01/10 09:29:20;;;;;;;;;;;2.90;97.80;;;;;;4346444;33;43476;-47
2021/01/10 09:31:48;;;;;;;;;;;2.90;97.80;;;;;;4346106;33;43251;-46
2021/01/10 09:34:23;;;;;;;;;;;2.80;98.10;;;;;;4346357;33;37165;-47
2021/01/10 09:37:03;;;;;;;;;;;2.90;97.80;;;;;;4347009;32;31035;-47
2021/01/10 09:39:40;;;;;;;;;;;2.90;97.80;;;;;;4345503;33;30804;-46
2021/01/10 09:42:08;;;;;;;;;;;2.90;97.80;;;;;;4345301;33;27425;-46
2021/01/10 09:44:35;;;;;;;;;;;2.90;97.90;;;;;;4346737;32;29854;-47
2021/01/10 09:47:02;;;;;;;;;;;2.90;97.90;;;;;;4345200;33;43299;-47
2021/01/10 09:49:33;;;;;;;;;;;2.90;97.90;;;;;;4346049;33;44381;-47
2021/01/10 09:52:12;;;;;;;;;;;2.90;97.90;;;;;;4345289;33;44349;-46
2021/01/10 09:54:39;;;;;;;;;;;2.90;97.90;;;;;;4344782;33;33365;-46
2021/01/10 09:57:09;;;;;;;;;;;2.90;97.90;;;;;;4345051;33;32398;-46
2021/01/10 09:59:36;;;;;;;;;;;2.90;97.90;;;;;;4346149;33;44232;-47
2021/01/10 10:02:12;;;;;;;;;;;2.90;97.90;;;;;;4346650;33;20477;-47
2021/01/10 10:04:40;;;;;;;;;;;2.90;97.90;;;;;;4345723;33;42928;-46
2021/01/10 10:07:07;;;;;;;;;;;2.90;98.00;;;;;;4346796;33;20090;-47
2021/01/10 10:09:44;;;;;;;;;;;2.90;98.00;;;;;;4345619;32;44284;-47
2021/01/10 10:12:11;;;;;;;;;;;2.90;97.90;;;;;;4345009;33;32414;-48
2021/01/10 10:14:38;;;;;;;;;;;2.90;97.90;;;;;;4345747;33;42477;-50
2021/01/10 10:17:10;;;;;;;;;;;2.90;97.90;;;;;;4345261;33;31058;-47
2021/01/10 10:19:37;;;;;;;;;;;3.00;98.00;;;;;;4345031;33;31692;-47
2021/01/10 10:22:17;;;;;;;;;;;3.00;98.00;;;;;;4345362;33;44304;-48
2021/01/10 10:24:44;;;;;;;;;;;3.00;98.00;;;;;;4346058;33;35511;-48
2021/01/10 10:27:11;;;;;;;;;;;3.00;98.00;;;;;;4345610;32;42997;-52
2021/01/10 10:29:38;;;;;;;;;;;3.00;98.00;;;;;;4345761;32;43168;-47
2021/01/10 10:32:05;;;;;;;;;;;3.00;98.00;;;;;;4346046;33;32197;-49
2021/01/10 10:34:33;;;;;;;;;;;3.00;98.00;;;;;;4344814;33;43510;-48
2021/01/10 10:37:00;;;;;;;;;;;3.00;98.00;;;;;;4344594;33;31775;-50
2021/01/10 10:39:27;;;;;;;;;;;3.00;98.00;;;;;;4345613;33;43280;-48
2021/01/10 10:41:54;;;;;;;;;;;3.00;98.00;;;;;;4344321;33;42612;-52
2021/01/10 10:44:21;;;;;;;;;;;3.00;98.00;;;;;;4345493;33;43804;-50
2021/01/10 10:46:48;;;;;;;;;;;3.00;98.00;;;;;;4345509;33;43568;-46
2021/01/10 10:49:14;;;;;;;;;;;3.10;98.00;;;;;;4345350;33;44138;-46
2021/01/10 10:51:41;;;;;;;;;;;3.00;98.00;;;;;;4345185;33;43247;-46
2021/01/10 10:54:09;;;;;;;;;;;3.10;98.00;;;;;;4345577;33;44129;-46
2021/01/10 10:56:39;;;;;;;;;;;3.10;98.00;;;;;;4345008;33;42433;-46
2021/01/10 10:59:06;;;;;;;;;;;3.10;98.00;;;;;;4357279;32;20024;-46
2021/01/10 11:01:44;;;;;;;;;;;3.10;98.00;;;;;;4344715;33;42903;-46
2021/01/10 11:04:11;;;;;;;;;;;3.10;98.00;;;;;;4345744;33;43965;-46
2021/01/10 11:06:38;;;;;;;;;;;3.10;98.00;;;;;;4345341;33;43457;-47
2021/01/10 11:09:09;;;;;;;;;;;3.10;97.90;;;;;;4345206;33;42247;-46
2021/01/10 11:11:45;;;;;;;;;;;3.10;97.90;;;;;;4345361;33;41978;-46
2021/01/10 11:14:16;;;;;;;;;;;3.10;97.90;;;;;;4345978;33;44597;-47
2021/01/10 11:16:43;;;;;;;;;;;3.10;97.90;;;;;;4348726;33;43137;-48
2021/01/10 11:19:10;;;;;;;;;;;3.10;97.90;;;;;;4348587;33;44186;-47
2021/01/10 11:21:39;;;;;;;;;;;3.10;97.90;;;;;;4348287;33;43315;-46
2021/01/10 11:24:07;;;;;;;;;;;3.10;97.90;;;;;;4348416;33;39877;-47
2021/01/10 11:26:35;;;;;;;;;;;3.10;97.90;;;;;;4346952;33;31728;-47
2021/01/10 11:29:04;;;;;;;;;;;3.20;97.90;;;;;;4348810;33;29952;-46
2021/01/10 11:31:32;;;;;;;;;;;3.20;97.90;;;;;;4334903;33;31534;-48
2021/01/10 11:34:00;;;;;;;;;;;3.20;97.90;;;;;;4359343;32;43484;-48
2021/01/10 11:36:27;;;;;;;;;;;3.20;97.90;;;;;;4348130;32;43294;-50
2021/01/10 11:38:54;;;;;;;;;;;3.20;97.90;;;;;;4348002;33;44596;-48
2021/01/10 11:41:22;;;;;;;;;;;3.20;97.90;;;;;;4347747;33;43275;-47
2021/01/10 11:43:49;;;;;;;;;;;3.20;98.00;;;;;;4347697;32;44215;-47
2021/01/10 11:46:16;;;;;;;;;;;3.20;97.90;;;;;;4347756;33;43079;-46
2021/01/10 11:48:43;;;;;;;;;;;3.20;97.90;;;;;;4347986;33;44470;-48
2021/01/10 11:51:12;;;;;;;;;;;3.20;97.90;;;;;;4348158;33;32381;-46
2021/01/10 11:53:39;;;;;;;;;;;3.20;97.90;;;;;;4347851;33;43355;-47
2021/01/10 11:56:06;;;;;;;;;;;3.20;97.90;;;;;;4346508;33;42282;-47
2021/01/10 11:58:33;;;;;;;;;;;3.30;97.90;;;;;;4347863;33;44194;-47
2021/01/10 12:01:00;;;;;;;;;;;3.30;97.90;;;;;;4346764;33;43385;-49
2021/01/10 12:03:27;;;;;;;;;;;3.30;97.90;;;;;;4347531;33;42341;-49
2021/01/10 12:05:55;;;;;;;;;;;3.30;98.00;;;;;;4346696;33;43552;-48
2021/01/10 12:08:22;;;;;;;;;;;3.30;98.00;;;;;;4347720;32;44245;-49
2021/01/10 12:10:49;;;;;;;;;;;3.30;97.90;;;;;;4347444;33;40103;-49
2021/01/10 12:13:17;;;;;;;;;;;3.30;98.00;;;;;;4346931;32;44371;-49
2021/01/10 12:15:44;;;;;;;;;;;3.30;97.90;;;;;;4346481;33;43201;-48
2021/01/10 12:18:12;;;;;;;;;;;3.40;97.90;;;;;;4357201;32;43551;-47
2021/01/10 12:20:39;;;;;;;;;;;3.40;97.90;;;;;;4346413;33;43470;-46
2021/01/10 12:23:06;;;;;;;;;;;3.40;97.90;;;;;;4347277;33;44144;-48
2021/01/10 12:25:34;;;;;;;;;;;3.40;97.90;;;;;;4347101;33;44229;-47
2021/01/10 12:28:01;;;;;;;;;;;3.40;97.90;;;;;;4346302;33;30742;-46
2021/01/10 12:30:28;;;;;;;;;;;3.50;97.90;;;;;;4347438;33;43141;-47
2021/01/10 12:32:57;;;;;;;;;;;3.50;97.80;;;;;;4347295;32;44616;-49
2021/01/10 12:35:24;;;;;;;;;;;3.50;97.80;;;;;;4347521;33;20002;-46
2021/01/10 12:37:51;;;;;;;;;;;3.50;97.80;;;;;;4347039;33;43167;-51
2021/01/10 12:40:18;;;;;;;;;;;3.50;97.70;;;;;;4347292;33;44278;-49
2021/01/10 12:42:46;;;;;;;;;;;3.50;97.70;;;;;;4346958;33;42917;-47
2021/01/10 12:45:13;;;;;;;;;;;3.50;97.60;;;;;;4347099;33;42053;-46
2021/01/10 12:47:41;;;;;;;;;;;3.50;97.60;;;;;;4347088;33;43232;-46
2021/01/10 12:50:09;;;;;;;;;;;3.50;97.50;;;;;;4347082;33;43400;-46
2021/01/10 12:52:37;;;;;;;;;;;3.60;97.50;;;;;;4347151;32;29607;-46
2021/01/10 12:55:04;;;;;;;;;;;3.60;97.50;;;;;;4357869;32;41839;-46
2021/01/10 12:57:31;;;;;;;;;;;3.60;97.50;;;;;;4357988;32;42893;-46
2021/01/10 12:59:58;;;;;;;;;;;3.60;97.80;;;;;;4346524;33;44534;-46
2021/01/10 13:02:25;;;;;;;;;;;3.60;97.50;;;;;;4345779;33;31148;-47
2021/01/10 13:04:55;;;;;;;;;;;3.60;97.40;;;;;;4346917;33;43164;-46
2021/01/10 13:07:22;;;;;;;;;;;3.60;97.40;;;;;;4346565;33;43283;-46
2021/01/10 13:09:49;;;;;;;;;;;3.60;97.40;;;;;;4346742;32;43564;-47
2021/01/10 13:12:18;;;;;;;;;;;3.60;97.40;;;;;;4348187;33;19993;-46
2021/01/10 13:14:44;;;;;;;;;;;3.50;97.40;;;;;;4346808;33;42701;-47
2021/01/10 13:17:11;;;;;;;;;;;3.60;97.40;;;;;;4346677;33;43701;-46
2021/01/10 13:19:41;;;;;;;;;;;3.60;97.40;;;;;;4345506;33;33483;-46
2021/01/10 13:22:09;;;;;;;;;;;3.60;97.30;;;;;;4346133;32;43416;-47
2021/01/10 13:24:36;;;;;;;;;;;3.60;97.30;;;;;;4345511;33;30468;-46
2021/01/10 13:27:03;;;;;;;;;;;3.60;97.30;;;;;;4357845;32;43833;-46
2021/01/10 13:29:31;;;;;;;;;;;3.60;97.30;;;;;;4346515;32;44337;-46
2021/01/10 13:31:59;;;;;;;;;;;3.60;97.20;;;;;;4357698;32;43330;-46
2021/01/10 13:34:26;;;;;;;;;;;3.60;97.20;;;;;;4346942;33;29904;-46
2021/01/10 13:36:56;;;;;;;;;;;3.60;97.20;;;;;;4346222;32;43859;-46
2021/01/10 13:39:23;;;;;;;;;;;3.60;97.20;;;;;;4345799;33;43286;-46
2021/01/10 13:41:50;;;;;;;;;;;3.60;97.20;;;;;;4345467;33;29800;-46
2021/01/10 13:44:18;;;;;;;;;;;3.60;97.20;;;;;;4346337;33;42124;-47
2021/01/10 13:46:46;;;;;;;;;;;3.60;97.20;;;;;;4346368;33;29734;-46
2021/01/10 13:49:13;;;;;;;;;;;3.60;97.20;;;;;;4346692;32;31775;-46
2021/01/10 13:51:40;;;;;;;;;;;3.60;97.20;;;;;;4346039;32;43816;-46
2021/01/10 13:54:06;;;;;;;;;;;3.60;97.20;;;;;;4346050;33;43948;-46
2021/01/10 13:56:33;;;;;;;;;;;3.60;97.20;;;;;;4346213;32;44293;-46
2021/01/10 13:59:00;;;;;;;;;;;3.60;97.20;;;;;;4346103;33;42780;-46
2021/01/10 14:01:37;;;;;;;;;;;3.60;97.20;;;;;;4345696;33;43232;-46
2021/01/10 14:04:05;;;;;;;;;;;3.60;97.20;;;;;;4357372;32;44149;-46
2021/01/10 14:06:34;;;;;;;;;;;3.60;97.20;;;;;;4345951;33;42826;-46
2021/01/10 14:09:02;;;;;;;;;;;3.60;97.20;;;;;;4332908;33;31779;-46
2021/01/10 14:11:30;;;;;;;;;;;3.60;97.20;;;;;;4345125;33;31648;-46
2021/01/10 14:13:59;;;;;;;;;;;3.60;97.50;;;;;;4356946;32;42770;-46
2021/01/10 14:16:27;;;;;;;;;;;3.60;97.10;;;;;;4345633;33;31775;-46
2021/01/10 14:18:55;;;;;;;;;;;3.60;97.10;;;;;;4345904;33;41918;-46
2021/01/10 14:21:30;;;;;;;;;;;3.50;97.10;;;;;;4356807;32;43164;-46
2021/01/10 14:24:01;;;;;;;;;;;3.60;97.00;;;;;;4357074;32;44202;-47
2021/01/10 14:26:45;;;;;;;;;;;3.60;97.00;;;;;;4356438;32;43248;-46
2021/01/10 14:29:12;;;;;;;;;;;3.50;97.00;;;;;;4344615;33;43580;-48
2021/01/10 14:31:48;;;;;;;;;;;3.50;97.10;;;;;;4345951;33;29935;-46
2021/01/10 14:34:16;;;;;;;;;;;3.50;97.00;;;;;;4356969;32;43139;-46
2021/01/10 14:36:44;;;;;;;;;;;3.50;97.10;;;;;;4344848;33;32733;-46
2021/01/10 14:39:10;;;;;;;;;;;3.60;97.10;;;;;;4345846;33;44176;-46